sensor_id;sensor_type;location;lat;lon;timestamp;P1;durP1;ratioP1;P2;durP2;ratioP2
7412;SDS011;3748;48.136;11.538;2022-12-20T00:00:02;8.90;;;6.80;;
7412;SDS011;3748;48.136;11.538;2022-12-20T00:02:29;13.50;;;7.77;;
7412;SDS011;3748;48.136;11.538;2022-12-20T00:04:56;9.77;;;7.90;;
7412;SDS011;3748;48.136;11.538;2022-12-20T00:07:23;10.70;;;7.53;;
7412;SDS011;3748;48.136;11.538;2022-12-20T00:09:50;13.13;;;7.60;;
7412;SDS011;3748;48.136;11.538;2022-12-20T00:12:16;12.03;;;8.23;;
7412;SDS011;3748;48.136;11.538;2022-12-20T00:14:43;11.17;;;8.07;;
7412;SDS011;3748;48.136;11.538;2022-12-20T00:17:11;8.83;;;7.57;;
7412;SDS011;3748;48.136;11.538;2022-12-20T00:19:38;10.73;;;7.90;;
7412;SDS011;3748;48.136;11.538;2022-12-20T00:22:05;9.93;;;7.83;;
7412;SDS011;3748;48.136;11.538;2022-12-20T00:24:32;13.60;;;9.03;;
7412;SDS011;3748;48.136;11.538;2022-12-20T00:26:59;10.43;;;7.43;;
7412;SDS011;3748;48.136;11.538;2022-12-20T00:29:26;9.70;;;7.50;;
7412;SDS011;3748;48.136;11.538;2022-12-20T00:31:52;12.97;;;8.63;;
7412;SDS011;3748;48.136;11.538;2022-12-20T00:34:21;11.63;;;8.60;;
7412;SDS011;3748;48.136;11.538;2022-12-20T00:36:47;13.63;;;8.67;;
7412;SDS011;3748;48.136;11.538;2022-12-20T00:39:14;11.87;;;8.07;;
7412;SDS011;3748;48.136;11.538;2022-12-20T00:41:41;10.50;;;8.27;;
7412;SDS011;3748;48.136;11.538;2022-12-20T00:44:08;11.47;;;8.03;;
7412;SDS011;3748;48.136;11.538;2022-12-20T00:46:35;8.13;;;6.27;;
7412;SDS011;3748;48.136;11.538;2022-12-20T00:49:02;9.60;;;6.67;;
7412;SDS011;3748;48.136;11.538;2022-12-20T00:51:30;11.77;;;8.20;;
7412;SDS011;3748;48.136;11.538;2022-12-20T00:53:57;12.77;;;8.60;;
7412;SDS011;3748;48.136;11.538;2022-12-20T00:56:24;15.20;;;8.23;;
7412;SDS011;3748;48.136;11.538;2022-12-20T00:58:51;11.10;;;6.70;;
7412;SDS011;3748;48.136;11.538;2022-12-20T01:01:19;12.50;;;7.10;;
7412;SDS011;3748;48.136;11.538;2022-12-20T01:03:48;8.40;;;6.33;;
7412;SDS011;3748;48.136;11.538;2022-12-20T01:06:16;14.63;;;9.33;;
7412;SDS011;3748;48.136;11.538;2022-12-20T01:08:45;14.13;;;7.30;;
7412;SDS011;3748;48.136;11.538;2022-12-20T01:11:12;8.83;;;7.10;;
7412;SDS011;3748;48.136;11.538;2022-12-20T01:13:42;14.00;;;7.13;;
7412;SDS011;3748;48.136;11.538;2022-12-20T01:16:12;12.23;;;7.33;;
7412;SDS011;3748;48.136;11.538;2022-12-20T01:18:40;7.90;;;5.80;;
7412;SDS011;3748;48.136;11.538;2022-12-20T01:21:08;9.30;;;6.23;;
7412;SDS011;3748;48.136;11.538;2022-12-20T01:23:36;12.30;;;7.43;;
7412;SDS011;3748;48.136;11.538;2022-12-20T01:26:06;11.30;;;6.63;;
7412;SDS011;3748;48.136;11.538;2022-12-20T01:28:35;9.80;;;7.30;;
7412;SDS011;3748;48.136;11.538;2022-12-20T01:31:04;8.20;;;6.20;;
7412;SDS011;3748;48.136;11.538;2022-12-20T01:33:32;10.40;;;6.80;;
7412;SDS011;3748;48.136;11.538;2022-12-20T01:36:00;10.13;;;5.37;;
7412;SDS011;3748;48.136;11.538;2022-12-20T01:38:28;9.17;;;5.70;;
7412;SDS011;3748;48.136;11.538;2022-12-20T01:40:55;9.07;;;6.07;;
7412;SDS011;3748;48.136;11.538;2022-12-20T01:43:25;7.20;;;6.10;;
7412;SDS011;3748;48.136;11.538;2022-12-20T01:46:09;9.73;;;4.67;;
7412;SDS011;3748;48.136;11.538;2022-12-20T01:48:36;4.47;;;4.03;;
7412;SDS011;3748;48.136;11.538;2022-12-20T01:51:03;7.00;;;4.40;;
7412;SDS011;3748;48.136;11.538;2022-12-20T01:53:30;13.43;;;4.80;;
7412;SDS011;3748;48.136;11.538;2022-12-20T01:55:57;6.47;;;4.10;;
7412;SDS011;3748;48.136;11.538;2022-12-20T01:58:29;7.30;;;4.37;;
7412;SDS011;3748;48.136;11.538;2022-12-20T02:00:57;8.37;;;5.63;;
7412;SDS011;3748;48.136;11.538;2022-12-20T02:03:23;5.90;;;4.27;;
7412;SDS011;3748;48.136;11.538;2022-12-20T02:05:50;8.13;;;4.93;;
7412;SDS011;3748;48.136;11.538;2022-12-20T02:08:18;6.33;;;5.10;;
7412;SDS011;3748;48.136;11.538;2022-12-20T02:10:50;5.63;;;4.33;;
7412;SDS011;3748;48.136;11.538;2022-12-20T02:13:37;5.77;;;4.20;;
7412;SDS011;3748;48.136;11.538;2022-12-20T02:16:09;5.17;;;4.20;;
7412;SDS011;3748;48.136;11.538;2022-12-20T02:18:40;5.13;;;3.47;;
7412;SDS011;3748;48.136;11.538;2022-12-20T02:21:18;4.53;;;3.40;;
7412;SDS011;3748;48.136;11.538;2022-12-20T02:27:06;5.03;;;3.60;;
7412;SDS011;3748;48.136;11.538;2022-12-20T02:30:04;6.10;;;3.80;;
7412;SDS011;3748;48.136;11.538;2022-12-20T02:32:39;7.40;;;3.77;;
7412;SDS011;3748;48.136;11.538;2022-12-20T02:35:13;5.50;;;3.23;;
7412;SDS011;3748;48.136;11.538;2022-12-20T02:37:48;3.17;;;2.87;;
7412;SDS011;3748;48.136;11.538;2022-12-20T02:40:16;7.90;;;4.87;;
7412;SDS011;3748;48.136;11.538;2022-12-20T02:42:47;3.00;;;2.53;;
7412;SDS011;3748;48.136;11.538;2022-12-20T02:45:18;5.80;;;3.57;;
7412;SDS011;3748;48.136;11.538;2022-12-20T02:47:48;4.67;;;3.53;;
7412;SDS011;3748;48.136;11.538;2022-12-20T02:50:20;4.03;;;3.63;;
7412;SDS011;3748;48.136;11.538;2022-12-20T02:52:49;4.27;;;3.50;;
7412;SDS011;3748;48.136;11.538;2022-12-20T02:55:17;5.40;;;3.90;;
7412;SDS011;3748;48.136;11.538;2022-12-20T02:57:47;3.50;;;3.13;;
7412;SDS011;3748;48.136;11.538;2022-12-20T03:00:19;4.40;;;3.30;;
7412;SDS011;3748;48.136;11.538;2022-12-20T03:02:48;6.30;;;3.90;;
7412;SDS011;3748;48.136;11.538;2022-12-20T03:05:34;3.60;;;3.27;;
7412;SDS011;3748;48.136;11.538;2022-12-20T03:08:08;4.87;;;3.30;;
7412;SDS011;3748;48.136;11.538;2022-12-20T03:10:35;5.20;;;3.57;;
7412;SDS011;3748;48.136;11.538;2022-12-20T03:13:02;4.00;;;3.03;;
7412;SDS011;3748;48.136;11.538;2022-12-20T03:15:30;3.90;;;3.60;;
7412;SDS011;3748;48.136;11.538;2022-12-20T03:17:57;5.77;;;2.90;;
7412;SDS011;3748;48.136;11.538;2022-12-20T03:20:24;3.90;;;3.30;;
7412;SDS011;3748;48.136;11.538;2022-12-20T03:22:51;4.73;;;3.00;;
7412;SDS011;3748;48.136;11.538;2022-12-20T03:25:18;3.63;;;3.17;;
7412;SDS011;3748;48.136;11.538;2022-12-20T03:27:45;5.50;;;3.17;;
7412;SDS011;3748;48.136;11.538;2022-12-20T03:30:12;4.33;;;2.63;;
7412;SDS011;3748;48.136;11.538;2022-12-20T03:32:41;2.80;;;2.60;;
7412;SDS011;3748;48.136;11.538;2022-12-20T03:35:08;4.80;;;2.80;;
7412;SDS011;3748;48.136;11.538;2022-12-20T03:37:35;3.60;;;2.73;;
7412;SDS011;3748;48.136;11.538;2022-12-20T03:40:02;3.23;;;2.90;;
7412;SDS011;3748;48.136;11.538;2022-12-20T03:42:29;6.83;;;2.90;;
7412;SDS011;3748;48.136;11.538;2022-12-20T03:44:56;3.83;;;2.90;;
7412;SDS011;3748;48.136;11.538;2022-12-20T03:47:23;3.93;;;2.93;;
7412;SDS011;3748;48.136;11.538;2022-12-20T03:49:51;5.20;;;3.13;;
7412;SDS011;3748;48.136;11.538;2022-12-20T03:52:18;4.17;;;2.77;;
7412;SDS011;3748;48.136;11.538;2022-12-20T03:54:45;5.00;;;3.33;;
7412;SDS011;3748;48.136;11.538;2022-12-20T03:57:12;3.23;;;2.60;;
7412;SDS011;3748;48.136;11.538;2022-12-20T03:59:39;4.03;;;3.17;;
7412;SDS011;3748;48.136;11.538;2022-12-20T04:02:07;3.00;;;2.43;;
7412;SDS011;3748;48.136;11.538;2022-12-20T04:04:34;3.40;;;2.57;;
7412;SDS011;3748;48.136;11.538;2022-12-20T04:07:02;3.50;;;2.83;;
7412;SDS011;3748;48.136;11.538;2022-12-20T04:09:29;3.37;;;3.10;;
7412;SDS011;3748;48.136;11.538;2022-12-20T04:11:56;3.50;;;2.30;;
7412;SDS011;3748;48.136;11.538;2022-12-20T04:14:22;3.13;;;2.83;;
7412;SDS011;3748;48.136;11.538;2022-12-20T04:16:49;4.10;;;2.70;;
7412;SDS011;3748;48.136;11.538;2022-12-20T04:19:16;3.70;;;2.30;;
7412;SDS011;3748;48.136;11.538;2022-12-20T04:21:43;3.33;;;2.73;;
7412;SDS011;3748;48.136;11.538;2022-12-20T04:24:11;3.50;;;2.57;;
7412;SDS011;3748;48.136;11.538;2022-12-20T04:26:38;4.20;;;2.70;;
7412;SDS011;3748;48.136;11.538;2022-12-20T04:29:05;2.43;;;2.10;;
7412;SDS011;3748;48.136;11.538;2022-12-20T04:31:32;6.13;;;3.00;;
7412;SDS011;3748;48.136;11.538;2022-12-20T04:34:00;3.47;;;2.60;;
7412;SDS011;3748;48.136;11.538;2022-12-20T04:36:27;3.43;;;3.10;;
7412;SDS011;3748;48.136;11.538;2022-12-20T04:38:54;4.23;;;2.57;;
7412;SDS011;3748;48.136;11.538;2022-12-20T04:41:22;3.40;;;2.50;;
7412;SDS011;3748;48.136;11.538;2022-12-20T04:43:51;3.53;;;2.90;;
7412;SDS011;3748;48.136;11.538;2022-12-20T04:46:20;3.53;;;2.80;;
7412;SDS011;3748;48.136;11.538;2022-12-20T04:48:48;4.70;;;2.70;;
7412;SDS011;3748;48.136;11.538;2022-12-20T04:51:15;3.80;;;3.47;;
7412;SDS011;3748;48.136;11.538;2022-12-20T04:53:42;4.27;;;2.70;;
7412;SDS011;3748;48.136;11.538;2022-12-20T04:56:12;3.50;;;3.20;;
7412;SDS011;3748;48.136;11.538;2022-12-20T04:58:41;4.83;;;3.53;;
7412;SDS011;3748;48.136;11.538;2022-12-20T05:01:08;5.00;;;3.13;;
7412;SDS011;3748;48.136;11.538;2022-12-20T05:03:36;4.33;;;3.10;;
7412;SDS011;3748;48.136;11.538;2022-12-20T05:06:03;4.90;;;3.90;;
7412;SDS011;3748;48.136;11.538;2022-12-20T05:08:31;5.23;;;3.50;;
7412;SDS011;3748;48.136;11.538;2022-12-20T05:10:58;6.27;;;3.40;;
7412;SDS011;3748;48.136;11.538;2022-12-20T05:13:25;6.10;;;3.20;;
7412;SDS011;3748;48.136;11.538;2022-12-20T05:15:53;5.73;;;3.37;;
7412;SDS011;3748;48.136;11.538;2022-12-20T05:18:21;12.00;;;4.23;;
7412;SDS011;3748;48.136;11.538;2022-12-20T05:20:48;3.80;;;3.30;;
7412;SDS011;3748;48.136;11.538;2022-12-20T05:23:36;5.00;;;3.30;;
7412;SDS011;3748;48.136;11.538;2022-12-20T05:26:21;2.90;;;2.50;;
7412;SDS011;3748;48.136;11.538;2022-12-20T05:28:50;4.93;;;3.20;;
7412;SDS011;3748;48.136;11.538;2022-12-20T05:34:03;4.53;;;2.97;;
7412;SDS011;3748;48.136;11.538;2022-12-20T05:36:30;6.70;;;3.10;;
7412;SDS011;3748;48.136;11.538;2022-12-20T05:38:57;4.03;;;3.63;;
7412;SDS011;3748;48.136;11.538;2022-12-20T05:41:24;3.77;;;3.33;;
7412;SDS011;3748;48.136;11.538;2022-12-20T05:43:51;6.90;;;3.30;;
7412;SDS011;3748;48.136;11.538;2022-12-20T05:46:17;6.50;;;2.73;;
7412;SDS011;3748;48.136;11.538;2022-12-20T05:51:56;4.93;;;3.30;;
7412;SDS011;3748;48.136;11.538;2022-12-20T05:54:23;4.87;;;2.97;;
7412;SDS011;3748;48.136;11.538;2022-12-20T05:56:50;6.30;;;3.30;;
7412;SDS011;3748;48.136;11.538;2022-12-20T05:59:17;5.20;;;3.77;;
7412;SDS011;3748;48.136;11.538;2022-12-20T06:01:44;5.20;;;3.20;;
7412;SDS011;3748;48.136;11.538;2022-12-20T06:04:11;7.33;;;2.83;;
7412;SDS011;3748;48.136;11.538;2022-12-20T06:06:38;4.83;;;3.67;;
7412;SDS011;3748;48.136;11.538;2022-12-20T06:09:06;4.43;;;2.70;;
7412;SDS011;3748;48.136;11.538;2022-12-20T06:11:36;3.87;;;3.07;;
7412;SDS011;3748;48.136;11.538;2022-12-20T06:14:02;6.10;;;3.83;;
7412;SDS011;3748;48.136;11.538;2022-12-20T06:16:29;6.17;;;3.47;;
7412;SDS011;3748;48.136;11.538;2022-12-20T06:18:56;6.27;;;3.20;;
7412;SDS011;3748;48.136;11.538;2022-12-20T06:21:24;3.90;;;3.13;;
7412;SDS011;3748;48.136;11.538;2022-12-20T06:23:52;4.17;;;2.50;;
7412;SDS011;3748;48.136;11.538;2022-12-20T06:26:31;3.30;;;2.50;;
7412;SDS011;3748;48.136;11.538;2022-12-20T06:32:04;6.40;;;4.60;;
7412;SDS011;3748;48.136;11.538;2022-12-20T06:34:32;5.30;;;3.50;;
7412;SDS011;3748;48.136;11.538;2022-12-20T06:37:06;11.13;;;5.00;;
7412;SDS011;3748;48.136;11.538;2022-12-20T06:39:33;4.80;;;3.43;;
7412;SDS011;3748;48.136;11.538;2022-12-20T06:42:02;3.87;;;3.10;;
7412;SDS011;3748;48.136;11.538;2022-12-20T06:44:29;4.70;;;3.97;;
7412;SDS011;3748;48.136;11.538;2022-12-20T06:46:57;8.00;;;4.60;;
7412;SDS011;3748;48.136;11.538;2022-12-20T06:49:23;6.20;;;3.73;;
7412;SDS011;3748;48.136;11.538;2022-12-20T06:51:50;8.37;;;4.20;;
7412;SDS011;3748;48.136;11.538;2022-12-20T06:54:17;9.07;;;4.43;;
7412;SDS011;3748;48.136;11.538;2022-12-20T06:56:44;8.47;;;5.80;;
7412;SDS011;3748;48.136;11.538;2022-12-20T06:59:12;4.77;;;4.27;;
7412;SDS011;3748;48.136;11.538;2022-12-20T07:01:39;5.23;;;3.90;;
7412;SDS011;3748;48.136;11.538;2022-12-20T07:04:06;7.50;;;5.43;;
7412;SDS011;3748;48.136;11.538;2022-12-20T07:06:33;5.40;;;4.07;;
7412;SDS011;3748;48.136;11.538;2022-12-20T07:09:00;7.53;;;5.00;;
7412;SDS011;3748;48.136;11.538;2022-12-20T07:11:26;7.97;;;5.00;;
7412;SDS011;3748;48.136;11.538;2022-12-20T07:13:54;7.63;;;4.70;;
7412;SDS011;3748;48.136;11.538;2022-12-20T07:16:22;8.27;;;4.90;;
7412;SDS011;3748;48.136;11.538;2022-12-20T07:18:49;5.43;;;4.23;;
7412;SDS011;3748;48.136;11.538;2022-12-20T07:21:17;5.57;;;4.03;;
7412;SDS011;3748;48.136;11.538;2022-12-20T07:23:45;7.10;;;5.00;;
7412;SDS011;3748;48.136;11.538;2022-12-20T07:26:12;5.70;;;3.83;;
7412;SDS011;3748;48.136;11.538;2022-12-20T07:28:40;5.93;;;4.13;;
7412;SDS011;3748;48.136;11.538;2022-12-20T07:31:07;5.60;;;3.83;;
7412;SDS011;3748;48.136;11.538;2022-12-20T07:33:36;3.10;;;2.90;;
7412;SDS011;3748;48.136;11.538;2022-12-20T07:36:03;7.17;;;3.47;;
7412;SDS011;3748;48.136;11.538;2022-12-20T07:38:31;8.90;;;3.70;;
7412;SDS011;3748;48.136;11.538;2022-12-20T07:40:59;6.30;;;3.83;;
7412;SDS011;3748;48.136;11.538;2022-12-20T07:43:26;5.13;;;4.37;;
7412;SDS011;3748;48.136;11.538;2022-12-20T07:45:54;4.20;;;3.10;;
7412;SDS011;3748;48.136;11.538;2022-12-20T07:48:21;5.70;;;3.37;;
7412;SDS011;3748;48.136;11.538;2022-12-20T07:50:49;4.10;;;3.30;;
7412;SDS011;3748;48.136;11.538;2022-12-20T07:53:18;7.47;;;5.03;;
7412;SDS011;3748;48.136;11.538;2022-12-20T07:55:45;5.83;;;3.30;;
7412;SDS011;3748;48.136;11.538;2022-12-20T07:58:13;9.03;;;3.63;;
7412;SDS011;3748;48.136;11.538;2022-12-20T08:00:42;7.53;;;3.47;;
7412;SDS011;3748;48.136;11.538;2022-12-20T08:03:10;3.60;;;3.30;;
7412;SDS011;3748;48.136;11.538;2022-12-20T08:05:40;5.00;;;3.40;;
7412;SDS011;3748;48.136;11.538;2022-12-20T08:08:12;3.70;;;2.43;;
7412;SDS011;3748;48.136;11.538;2022-12-20T08:10:40;3.73;;;2.50;;
7412;SDS011;3748;48.136;11.538;2022-12-20T08:13:08;3.43;;;3.10;;
7412;SDS011;3748;48.136;11.538;2022-12-20T08:15:35;2.90;;;2.30;;
7412;SDS011;3748;48.136;11.538;2022-12-20T08:18:02;4.50;;;3.27;;
7412;SDS011;3748;48.136;11.538;2022-12-20T08:20:30;4.73;;;3.47;;
7412;SDS011;3748;48.136;11.538;2022-12-20T08:22:57;7.23;;;3.23;;
7412;SDS011;3748;48.136;11.538;2022-12-20T08:25:25;4.20;;;3.07;;
7412;SDS011;3748;48.136;11.538;2022-12-20T08:27:52;3.20;;;2.90;;
7412;SDS011;3748;48.136;11.538;2022-12-20T08:30:19;4.73;;;3.47;;
7412;SDS011;3748;48.136;11.538;2022-12-20T08:32:46;5.30;;;4.70;;
7412;SDS011;3748;48.136;11.538;2022-12-20T08:35:13;5.73;;;4.40;;
7412;SDS011;3748;48.136;11.538;2022-12-20T08:37:40;6.30;;;4.10;;
7412;SDS011;3748;48.136;11.538;2022-12-20T08:40:07;9.47;;;4.70;;
7412;SDS011;3748;48.136;11.538;2022-12-20T08:42:36;5.40;;;4.43;;
7412;SDS011;3748;48.136;11.538;2022-12-20T08:45:03;6.67;;;4.83;;
7412;SDS011;3748;48.136;11.538;2022-12-20T08:47:31;8.27;;;4.47;;
7412;SDS011;3748;48.136;11.538;2022-12-20T08:49:58;7.93;;;4.90;;
7412;SDS011;3748;48.136;11.538;2022-12-20T08:52:26;8.60;;;4.50;;
7412;SDS011;3748;48.136;11.538;2022-12-20T08:54:54;7.10;;;3.70;;
7412;SDS011;3748;48.136;11.538;2022-12-20T08:57:20;6.73;;;3.67;;
7412;SDS011;3748;48.136;11.538;2022-12-20T08:59:49;6.43;;;4.13;;
7412;SDS011;3748;48.136;11.538;2022-12-20T09:02:15;5.57;;;4.13;;
7412;SDS011;3748;48.136;11.538;2022-12-20T09:04:42;8.03;;;3.83;;
7412;SDS011;3748;48.136;11.538;2022-12-20T09:07:09;6.50;;;4.10;;
7412;SDS011;3748;48.136;11.538;2022-12-20T09:09:36;5.07;;;4.07;;
7412;SDS011;3748;48.136;11.538;2022-12-20T09:12:03;9.40;;;4.13;;
7412;SDS011;3748;48.136;11.538;2022-12-20T09:14:31;5.77;;;4.03;;
7412;SDS011;3748;48.136;11.538;2022-12-20T09:17:00;11.67;;;5.60;;
7412;SDS011;3748;48.136;11.538;2022-12-20T09:19:26;19.70;;;3.97;;
7412;SDS011;3748;48.136;11.538;2022-12-20T09:21:55;5.77;;;3.70;;
7412;SDS011;3748;48.136;11.538;2022-12-20T09:24:21;6.80;;;4.50;;
7412;SDS011;3748;48.136;11.538;2022-12-20T09:26:48;6.63;;;4.07;;
7412;SDS011;3748;48.136;11.538;2022-12-20T09:29:15;6.50;;;3.73;;
7412;SDS011;3748;48.136;11.538;2022-12-20T09:31:42;3.43;;;3.13;;
7412;SDS011;3748;48.136;11.538;2022-12-20T09:34:10;6.63;;;4.13;;
7412;SDS011;3748;48.136;11.538;2022-12-20T09:36:37;6.67;;;4.20;;
7412;SDS011;3748;48.136;11.538;2022-12-20T09:39:04;5.40;;;3.60;;
7412;SDS011;3748;48.136;11.538;2022-12-20T09:41:31;6.83;;;4.10;;
7412;SDS011;3748;48.136;11.538;2022-12-20T09:44:03;6.10;;;4.33;;
7412;SDS011;3748;48.136;11.538;2022-12-20T09:46:37;5.10;;;3.50;;
7412;SDS011;3748;48.136;11.538;2022-12-20T09:49:05;6.10;;;4.33;;
7412;SDS011;3748;48.136;11.538;2022-12-20T09:51:42;4.30;;;3.80;;
7412;SDS011;3748;48.136;11.538;2022-12-20T09:54:20;8.80;;;4.53;;
7412;SDS011;3748;48.136;11.538;2022-12-20T09:56:59;5.50;;;4.10;;
7412;SDS011;3748;48.136;11.538;2022-12-20T09:59:32;5.90;;;4.20;;
7412;SDS011;3748;48.136;11.538;2022-12-20T10:02:00;5.70;;;4.73;;
7412;SDS011;3748;48.136;11.538;2022-12-20T10:04:27;5.63;;;4.40;;
7412;SDS011;3748;48.136;11.538;2022-12-20T10:07:03;5.23;;;3.67;;
7412;SDS011;3748;48.136;11.538;2022-12-20T10:09:46;5.33;;;4.10;;
7412;SDS011;3748;48.136;11.538;2022-12-20T10:12:29;6.27;;;4.17;;
7412;SDS011;3748;48.136;11.538;2022-12-20T10:15:08;3.57;;;3.30;;
7412;SDS011;3748;48.136;11.538;2022-12-20T10:17:45;9.30;;;4.33;;
7412;SDS011;3748;48.136;11.538;2022-12-20T10:20:23;6.10;;;4.10;;
7412;SDS011;3748;48.136;11.538;2022-12-20T10:23:06;7.00;;;4.47;;
7412;SDS011;3748;48.136;11.538;2022-12-20T10:25:39;6.77;;;3.47;;
7412;SDS011;3748;48.136;11.538;2022-12-20T10:28:09;5.57;;;3.63;;
7412;SDS011;3748;48.136;11.538;2022-12-20T10:30:39;8.10;;;4.03;;
7412;SDS011;3748;48.136;11.538;2022-12-20T10:33:07;7.50;;;4.27;;
7412;SDS011;3748;48.136;11.538;2022-12-20T10:35:43;4.53;;;3.63;;
7412;SDS011;3748;48.136;11.538;2022-12-20T10:38:12;5.97;;;3.97;;
7412;SDS011;3748;48.136;11.538;2022-12-20T10:40:42;7.30;;;3.90;;
7412;SDS011;3748;48.136;11.538;2022-12-20T10:43:15;6.57;;;4.30;;
7412;SDS011;3748;48.136;11.538;2022-12-20T10:45:44;7.50;;;4.47;;
7412;SDS011;3748;48.136;11.538;2022-12-20T10:48:25;7.47;;;4.17;;
7412;SDS011;3748;48.136;11.538;2022-12-20T10:50:55;8.63;;;4.57;;
7412;SDS011;3748;48.136;11.538;2022-12-20T10:53:25;6.60;;;4.77;;
7412;SDS011;3748;48.136;11.538;2022-12-20T10:55:53;8.17;;;5.07;;
7412;SDS011;3748;48.136;11.538;2022-12-20T10:58:34;6.33;;;4.50;;
7412;SDS011;3748;48.136;11.538;2022-12-20T11:01:03;6.50;;;5.00;;
7412;SDS011;3748;48.136;11.538;2022-12-20T11:03:39;6.77;;;5.13;;
7412;SDS011;3748;48.136;11.538;2022-12-20T11:06:16;6.97;;;4.83;;
7412;SDS011;3748;48.136;11.538;2022-12-20T11:08:45;9.50;;;5.27;;
7412;SDS011;3748;48.136;11.538;2022-12-20T11:11:14;8.20;;;5.50;;
7412;SDS011;3748;48.136;11.538;2022-12-20T11:13:43;6.07;;;4.37;;
7412;SDS011;3748;48.136;11.538;2022-12-20T11:16:24;7.40;;;4.47;;
7412;SDS011;3748;48.136;11.538;2022-12-20T11:19:05;7.63;;;4.50;;
7412;SDS011;3748;48.136;11.538;2022-12-20T11:21:57;5.40;;;4.50;;
7412;SDS011;3748;48.136;11.538;2022-12-20T11:24:32;5.93;;;4.53;;
7412;SDS011;3748;48.136;11.538;2022-12-20T11:27:15;7.27;;;5.17;;
7412;SDS011;3748;48.136;11.538;2022-12-20T11:30:00;8.70;;;5.50;;
7412;SDS011;3748;48.136;11.538;2022-12-20T11:32:41;8.30;;;4.60;;
7412;SDS011;3748;48.136;11.538;2022-12-20T11:35:28;7.37;;;4.90;;
7412;SDS011;3748;48.136;11.538;2022-12-20T11:38:06;8.80;;;5.33;;
7412;SDS011;3748;48.136;11.538;2022-12-20T11:40:43;6.23;;;4.10;;
7412;SDS011;3748;48.136;11.538;2022-12-20T11:43:21;4.80;;;4.20;;
7412;SDS011;3748;48.136;11.538;2022-12-20T11:46:04;5.20;;;4.67;;
7412;SDS011;3748;48.136;11.538;2022-12-20T11:48:55;6.40;;;4.90;;
7412;SDS011;3748;48.136;11.538;2022-12-20T11:51:34;5.10;;;4.40;;
7412;SDS011;3748;48.136;11.538;2022-12-20T11:54:10;11.03;;;5.10;;
7412;SDS011;3748;48.136;11.538;2022-12-20T11:56:42;8.80;;;5.30;;
7412;SDS011;3748;48.136;11.538;2022-12-20T11:59:11;8.23;;;5.93;;
7412;SDS011;3748;48.136;11.538;2022-12-20T12:01:45;7.03;;;6.33;;
7412;SDS011;3748;48.136;11.538;2022-12-20T12:04:18;8.03;;;5.77;;
7412;SDS011;3748;48.136;11.538;2022-12-20T12:06:48;6.30;;;5.10;;
7412;SDS011;3748;48.136;11.538;2022-12-20T12:09:22;5.97;;;5.40;;
7412;SDS011;3748;48.136;11.538;2022-12-20T12:11:56;6.63;;;5.57;;
7412;SDS011;3748;48.136;11.538;2022-12-20T12:14:28;8.03;;;5.80;;
7412;SDS011;3748;48.136;11.538;2022-12-20T12:17:04;11.93;;;5.97;;
7412;SDS011;3748;48.136;11.538;2022-12-20T12:19:35;9.20;;;5.00;;
7412;SDS011;3748;48.136;11.538;2022-12-20T12:22:05;10.00;;;5.63;;
7412;SDS011;3748;48.136;11.538;2022-12-20T12:24:37;8.47;;;4.87;;
7412;SDS011;3748;48.136;11.538;2022-12-20T12:27:11;5.70;;;5.10;;
7412;SDS011;3748;48.136;11.538;2022-12-20T12:29:48;6.60;;;5.67;;
7412;SDS011;3748;48.136;11.538;2022-12-20T12:32:18;9.07;;;5.70;;
7412;SDS011;3748;48.136;11.538;2022-12-20T12:34:53;6.93;;;5.30;;
7412;SDS011;3748;48.136;11.538;2022-12-20T12:40:32;10.50;;;6.87;;
7412;SDS011;3748;48.136;11.538;2022-12-20T12:43:22;14.10;;;5.90;;
7412;SDS011;3748;48.136;11.538;2022-12-20T12:46:13;8.53;;;6.50;;
7412;SDS011;3748;48.136;11.538;2022-12-20T12:48:44;9.67;;;6.63;;
7412;SDS011;3748;48.136;11.538;2022-12-20T12:51:19;7.73;;;6.73;;
7412;SDS011;3748;48.136;11.538;2022-12-20T12:53:50;8.50;;;6.30;;
7412;SDS011;3748;48.136;11.538;2022-12-20T12:59:21;11.17;;;9.17;;
7412;SDS011;3748;48.136;11.538;2022-12-20T13:02:24;9.93;;;6.90;;
7412;SDS011;3748;48.136;11.538;2022-12-20T13:07:56;8.30;;;6.57;;
7412;SDS011;3748;48.136;11.538;2022-12-20T13:13:31;9.70;;;6.70;;
7412;SDS011;3748;48.136;11.538;2022-12-20T13:16:08;8.73;;;5.50;;
7412;SDS011;3748;48.136;11.538;2022-12-20T13:18:37;8.97;;;5.40;;
7412;SDS011;3748;48.136;11.538;2022-12-20T13:21:36;5.90;;;4.87;;
7412;SDS011;3748;48.136;11.538;2022-12-20T13:27:29;8.10;;;7.30;;
7412;SDS011;3748;48.136;11.538;2022-12-20T13:32:57;9.43;;;7.00;;
7412;SDS011;3748;48.136;11.538;2022-12-20T13:35:58;7.73;;;6.67;;
7412;SDS011;3748;48.136;11.538;2022-12-20T13:38:51;12.83;;;6.77;;
7412;SDS011;3748;48.136;11.538;2022-12-20T13:41:26;7.67;;;6.33;;
7412;SDS011;3748;48.136;11.538;2022-12-20T13:44:00;10.23;;;7.27;;
7412;SDS011;3748;48.136;11.538;2022-12-20T13:46:46;9.90;;;7.53;;
7412;SDS011;3748;48.136;11.538;2022-12-20T13:49:19;10.93;;;7.53;;
7412;SDS011;3748;48.136;11.538;2022-12-20T13:52:05;7.87;;;6.90;;
7412;SDS011;3748;48.136;11.538;2022-12-20T13:54:39;10.30;;;7.00;;
7412;SDS011;3748;48.136;11.538;2022-12-20T13:57:08;9.97;;;7.00;;
7412;SDS011;3748;48.136;11.538;2022-12-20T13:59:39;12.67;;;7.20;;
7412;SDS011;3748;48.136;11.538;2022-12-20T14:02:16;91.73;;;62.67;;
7412;SDS011;3748;48.136;11.538;2022-12-20T14:04:56;28.10;;;20.47;;
7412;SDS011;3748;48.136;11.538;2022-12-20T14:07:25;14.30;;;9.77;;
7412;SDS011;3748;48.136;11.538;2022-12-20T14:09:55;15.43;;;11.80;;
7412;SDS011;3748;48.136;11.538;2022-12-20T14:12:25;22.87;;;12.77;;
7412;SDS011;3748;48.136;11.538;2022-12-20T14:14:53;19.37;;;12.07;;
7412;SDS011;3748;48.136;11.538;2022-12-20T14:17:33;19.53;;;12.63;;
7412;SDS011;3748;48.136;11.538;2022-12-20T14:20:19;15.40;;;10.00;;
7412;SDS011;3748;48.136;11.538;2022-12-20T14:22:51;18.23;;;13.43;;
7412;SDS011;3748;48.136;11.538;2022-12-20T14:25:25;19.97;;;13.00;;
7412;SDS011;3748;48.136;11.538;2022-12-20T14:27:56;21.50;;;15.13;;
7412;SDS011;3748;48.136;11.538;2022-12-20T14:30:25;20.50;;;14.80;;
7412;SDS011;3748;48.136;11.538;2022-12-20T14:33:02;30.53;;;15.70;;
7412;SDS011;3748;48.136;11.538;2022-12-20T14:35:31;21.83;;;15.10;;
7412;SDS011;3748;48.136;11.538;2022-12-20T14:37:58;26.73;;;16.80;;
7412;SDS011;3748;48.136;11.538;2022-12-20T14:40:28;23.27;;;15.83;;
7412;SDS011;3748;48.136;11.538;2022-12-20T14:42:55;28.13;;;18.90;;
7412;SDS011;3748;48.136;11.538;2022-12-20T14:45:23;32.70;;;18.10;;
7412;SDS011;3748;48.136;11.538;2022-12-20T14:47:56;32.00;;;19.33;;
7412;SDS011;3748;48.136;11.538;2022-12-20T14:50:27;27.80;;;19.00;;
7412;SDS011;3748;48.136;11.538;2022-12-20T14:52:57;32.73;;;19.00;;
7412;SDS011;3748;48.136;11.538;2022-12-20T14:55:27;27.20;;;19.47;;
7412;SDS011;3748;48.136;11.538;2022-12-20T14:57:57;23.47;;;17.57;;
7412;SDS011;3748;48.136;11.538;2022-12-20T15:00:25;29.70;;;16.47;;
7412;SDS011;3748;48.136;11.538;2022-12-20T15:02:58;24.53;;;17.50;;
7412;SDS011;3748;48.136;11.538;2022-12-20T15:05:46;22.33;;;14.60;;
7412;SDS011;3748;48.136;11.538;2022-12-20T15:08:16;28.83;;;16.43;;
7412;SDS011;3748;48.136;11.538;2022-12-20T15:10:47;30.10;;;17.10;;
7412;SDS011;3748;48.136;11.538;2022-12-20T15:13:17;25.63;;;17.00;;
7412;SDS011;3748;48.136;11.538;2022-12-20T15:15:45;27.10;;;18.23;;
7412;SDS011;3748;48.136;11.538;2022-12-20T15:18:12;27.80;;;17.20;;
7412;SDS011;3748;48.136;11.538;2022-12-20T15:20:40;23.17;;;16.00;;
7412;SDS011;3748;48.136;11.538;2022-12-20T15:23:12;28.33;;;16.30;;
7412;SDS011;3748;48.136;11.538;2022-12-20T15:25:43;23.33;;;14.90;;
7412;SDS011;3748;48.136;11.538;2022-12-20T15:28:14;20.63;;;15.40;;
7412;SDS011;3748;48.136;11.538;2022-12-20T15:30:42;19.97;;;13.90;;
7412;SDS011;3748;48.136;11.538;2022-12-20T15:33:14;35.43;;;15.00;;
7412;SDS011;3748;48.136;11.538;2022-12-20T15:35:42;22.03;;;13.90;;
7412;SDS011;3748;48.136;11.538;2022-12-20T15:38:13;27.60;;;13.87;;
7412;SDS011;3748;48.136;11.538;2022-12-20T15:40:44;18.77;;;12.60;;
7412;SDS011;3748;48.136;11.538;2022-12-20T15:43:12;19.60;;;13.43;;
7412;SDS011;3748;48.136;11.538;2022-12-20T15:45:42;17.73;;;14.83;;